sensor_id;sensor_type;location;lat;lon;timestamp;P1;durP1;ratioP1;P2;durP2;ratioP2
53207;SDS011;39093;52.788;6.940;2023-01-28T00:00:52;14.13;;;10.35;;
53207;SDS011;39093;52.788;6.940;2023-01-28T00:03:20;11.00;;;9.90;;
53207;SDS011;39093;52.788;6.940;2023-01-28T00:05:47;10.90;;;9.43;;
53207;SDS011;39093;52.788;6.940;2023-01-28T00:08:14;12.48;;;11.02;;
53207;SDS011;39093;52.788;6.940;2023-01-28T00:10:41;11.27;;;10.18;;
53207;SDS011;39093;52.788;6.940;2023-01-28T00:13:11;11.32;;;10.13;;
53207;SDS011;39093;52.788;6.940;2023-01-28T00:15:41;11.80;;;9.35;;
53207;SDS011;39093;52.788;6.940;2023-01-28T00:18:08;12.05;;;9.98;;
53207;SDS011;39093;52.788;6.940;2023-01-28T00:20:35;10.23;;;8.82;;
53207;SDS011;39093;52.788;6.940;2023-01-28T00:23:02;11.35;;;10.23;;
53207;SDS011;39093;52.788;6.940;2023-01-28T00:25:29;10.75;;;9.75;;
53207;SDS011;39093;52.788;6.940;2023-01-28T00:27:56;12.38;;;10.25;;
53207;SDS011;39093;52.788;6.940;2023-01-28T00:30:23;11.75;;;10.55;;
53207;SDS011;39093;52.788;6.940;2023-01-28T00:32:50;12.73;;;9.95;;
53207;SDS011;39093;52.788;6.940;2023-01-28T00:35:19;11.27;;;10.20;;
53207;SDS011;39093;52.788;6.940;2023-01-28T00:37:46;10.43;;;9.43;;
53207;SDS011;39093;52.788;6.940;2023-01-28T00:40:12;10.82;;;9.73;;
53207;SDS011;39093;52.788;6.940;2023-01-28T00:42:39;11.63;;;10.23;;
53207;SDS011;39093;52.788;6.940;2023-01-28T00:45:06;11.10;;;10.00;;
53207;SDS011;39093;52.788;6.940;2023-01-28T00:47:34;10.20;;;9.20;;
53207;SDS011;39093;52.788;6.940;2023-01-28T00:50:01;9.35;;;8.45;;
53207;SDS011;39093;52.788;6.940;2023-01-28T00:52:29;8.23;;;7.50;;
53207;SDS011;39093;52.788;6.940;2023-01-28T00:54:56;10.73;;;9.27;;
53207;SDS011;39093;52.788;6.940;2023-01-28T00:57:22;9.57;;;8.55;;
53207;SDS011;39093;52.788;6.940;2023-01-28T00:59:49;8.35;;;7.55;;
53207;SDS011;39093;52.788;6.940;2023-01-28T01:02:16;8.35;;;7.57;;
53207;SDS011;39093;52.788;6.940;2023-01-28T01:04:43;7.22;;;5.90;;
53207;SDS011;39093;52.788;6.940;2023-01-28T01:07:24;7.88;;;7.18;;
53207;SDS011;39093;52.788;6.940;2023-01-28T01:10:12;7.10;;;6.50;;
53207;SDS011;39093;52.788;6.940;2023-01-28T01:12:41;8.20;;;7.35;;
53207;SDS011;39093;52.788;6.940;2023-01-28T01:15:08;8.18;;;7.47;;
53207;SDS011;39093;52.788;6.940;2023-01-28T01:17:36;7.93;;;7.10;;
53207;SDS011;39093;52.788;6.940;2023-01-28T01:20:05;7.25;;;6.30;;
53207;SDS011;39093;52.788;6.940;2023-01-28T01:22:34;8.50;;;6.32;;
53207;SDS011;39093;52.788;6.940;2023-01-28T01:25:02;8.07;;;7.03;;
53207;SDS011;39093;52.788;6.940;2023-01-28T01:27:30;6.40;;;5.90;;
53207;SDS011;39093;52.788;6.940;2023-01-28T01:29:57;7.18;;;5.85;;
53207;SDS011;39093;52.788;6.940;2023-01-28T01:32:24;6.35;;;5.55;;
53207;SDS011;39093;52.788;6.940;2023-01-28T01:34:55;6.15;;;5.65;;
53207;SDS011;39093;52.788;6.940;2023-01-28T01:37:22;6.55;;;5.55;;
53207;SDS011;39093;52.788;6.940;2023-01-28T01:39:49;5.90;;;5.22;;
53207;SDS011;39093;52.788;6.940;2023-01-28T01:42:16;6.65;;;5.95;;
53207;SDS011;39093;52.788;6.940;2023-01-28T01:45:00;7.00;;;6.40;;
53207;SDS011;39093;52.788;6.940;2023-01-28T01:53:01;6.32;;;5.80;;
53207;SDS011;39093;52.788;6.940;2023-01-28T01:55:33;6.20;;;5.53;;
53207;SDS011;39093;52.788;6.940;2023-01-28T01:58:07;6.28;;;5.68;;
53207;SDS011;39093;52.788;6.940;2023-01-28T02:00:39;7.68;;;6.00;;
53207;SDS011;39093;52.788;6.940;2023-01-28T02:03:07;5.57;;;5.07;;
53207;SDS011;39093;52.788;6.940;2023-01-28T02:05:37;6.40;;;5.80;;
53207;SDS011;39093;52.788;6.940;2023-01-28T02:08:05;7.10;;;6.40;;
53207;SDS011;39093;52.788;6.940;2023-01-28T02:10:58;7.32;;;6.68;;
53207;SDS011;39093;52.788;6.940;2023-01-28T02:13:34;7.20;;;6.60;;
53207;SDS011;39093;52.788;6.940;2023-01-28T02:16:05;7.70;;;7.00;;
53207;SDS011;39093;52.788;6.940;2023-01-28T02:18:33;7.30;;;6.57;;
53207;SDS011;39093;52.788;6.940;2023-01-28T02:21:09;7.07;;;5.90;;
53207;SDS011;39093;52.788;6.940;2023-01-28T02:24:02;7.07;;;5.43;;
53207;SDS011;39093;52.788;6.940;2023-01-28T02:32:43;10.82;;;6.18;;
53207;SDS011;39093;52.788;6.940;2023-01-28T02:40:52;7.53;;;6.05;;
53207;SDS011;39093;52.788;6.940;2023-01-28T02:45:57;8.10;;;5.43;;
53207;SDS011;39093;52.788;6.940;2023-01-28T02:48:44;5.85;;;5.35;;
53207;SDS011;39093;52.788;6.940;2023-01-28T02:51:15;11.88;;;6.38;;
53207;SDS011;39093;52.788;6.940;2023-01-28T02:53:56;8.60;;;5.38;;
53207;SDS011;39093;52.788;6.940;2023-01-28T02:56:35;6.30;;;5.32;;
53207;SDS011;39093;52.788;6.940;2023-01-28T02:59:27;6.15;;;5.35;;
53207;SDS011;39093;52.788;6.940;2023-01-28T03:05:02;5.95;;;5.43;;
53207;SDS011;39093;52.788;6.940;2023-01-28T03:07:31;7.38;;;4.82;;
53207;SDS011;39093;52.788;6.940;2023-01-28T03:10:02;5.63;;;5.13;;
53207;SDS011;39093;52.788;6.940;2023-01-28T03:12:32;6.00;;;5.40;;
53207;SDS011;39093;52.788;6.940;2023-01-28T03:15:21;5.80;;;4.85;;
53207;SDS011;39093;52.788;6.940;2023-01-28T03:18:35;5.57;;;4.97;;
53207;SDS011;39093;52.788;6.940;2023-01-28T03:21:27;9.00;;;6.00;;
53207;SDS011;39093;52.788;6.940;2023-01-28T03:24:27;6.85;;;5.57;;
53207;SDS011;39093;52.788;6.940;2023-01-28T03:27:33;6.93;;;6.00;;
53207;SDS011;39093;52.788;6.940;2023-01-28T03:33:47;6.15;;;5.55;;
53207;SDS011;39093;52.788;6.940;2023-01-28T03:36:33;6.70;;;5.50;;
53207;SDS011;39093;52.788;6.940;2023-01-28T03:39:16;6.85;;;6.25;;
53207;SDS011;39093;52.788;6.940;2023-01-28T03:42:05;6.43;;;5.43;;
53207;SDS011;39093;52.788;6.940;2023-01-28T03:44:35;7.10;;;5.75;;
53207;SDS011;39093;52.788;6.940;2023-01-28T03:47:22;5.38;;;4.88;;
53207;SDS011;39093;52.788;6.940;2023-01-28T03:49:51;7.50;;;6.72;;
53207;SDS011;39093;52.788;6.940;2023-01-28T03:52:24;6.40;;;5.78;;
53207;SDS011;39093;52.788;6.940;2023-01-28T03:54:53;8.02;;;5.68;;
53207;SDS011;39093;52.788;6.940;2023-01-28T03:57:24;6.40;;;4.97;;
53207;SDS011;39093;52.788;6.940;2023-01-28T03:59:53;6.20;;;5.60;;
53207;SDS011;39093;52.788;6.940;2023-01-28T04:02:20;6.70;;;5.93;;
53207;SDS011;39093;52.788;6.940;2023-01-28T04:04:48;7.25;;;6.25;;
53207;SDS011;39093;52.788;6.940;2023-01-28T04:07:16;6.60;;;5.97;;
53207;SDS011;39093;52.788;6.940;2023-01-28T04:09:43;7.00;;;6.10;;
53207;SDS011;39093;52.788;6.940;2023-01-28T04:12:10;7.53;;;6.63;;
53207;SDS011;39093;52.788;6.940;2023-01-28T04:14:37;7.20;;;6.47;;
53207;SDS011;39093;52.788;6.940;2023-01-28T04:17:06;7.53;;;6.50;;
53207;SDS011;39093;52.788;6.940;2023-01-28T04:19:36;7.43;;;6.15;;
53207;SDS011;39093;52.788;6.940;2023-01-28T04:22:06;8.90;;;5.80;;
53207;SDS011;39093;52.788;6.940;2023-01-28T04:24:35;6.78;;;6.18;;
53207;SDS011;39093;52.788;6.940;2023-01-28T04:27:02;7.80;;;6.63;;
53207;SDS011;39093;52.788;6.940;2023-01-28T04:29:29;6.72;;;6.03;;
53207;SDS011;39093;52.788;6.940;2023-01-28T04:31:56;8.27;;;6.13;;
53207;SDS011;39093;52.788;6.940;2023-01-28T04:34:23;6.78;;;6.07;;
53207;SDS011;39093;52.788;6.940;2023-01-28T04:36:50;7.70;;;6.85;;
53207;SDS011;39093;52.788;6.940;2023-01-28T04:39:17;8.07;;;6.50;;
53207;SDS011;39093;52.788;6.940;2023-01-28T04:41:44;8.73;;;6.10;;
53207;SDS011;39093;52.788;6.940;2023-01-28T04:44:11;6.70;;;5.70;;
53207;SDS011;39093;52.788;6.940;2023-01-28T04:46:39;8.32;;;5.88;;
53207;SDS011;39093;52.788;6.940;2023-01-28T04:49:05;7.32;;;5.72;;
53207;SDS011;39093;52.788;6.940;2023-01-28T04:51:32;6.75;;;6.15;;
53207;SDS011;39093;52.788;6.940;2023-01-28T04:53:59;7.90;;;6.72;;
53207;SDS011;39093;52.788;6.940;2023-01-28T04:56:26;7.55;;;6.32;;
53207;SDS011;39093;52.788;6.940;2023-01-28T04:58:53;8.55;;;6.78;;
53207;SDS011;39093;52.788;6.940;2023-01-28T05:01:20;7.68;;;6.25;;
53207;SDS011;39093;52.788;6.940;2023-01-28T05:03:47;7.13;;;6.43;;
53207;SDS011;39093;52.788;6.940;2023-01-28T05:06:14;9.15;;;6.93;;
53207;SDS011;39093;52.788;6.940;2023-01-28T05:08:40;7.53;;;6.72;;
53207;SDS011;39093;52.788;6.940;2023-01-28T05:11:07;11.80;;;6.53;;
53207;SDS011;39093;52.788;6.940;2023-01-28T05:13:34;6.88;;;6.18;;
53207;SDS011;39093;52.788;6.940;2023-01-28T05:16:01;9.55;;;6.50;;
53207;SDS011;39093;52.788;6.940;2023-01-28T05:18:31;8.30;;;6.28;;
53207;SDS011;39093;52.788;6.940;2023-01-28T05:21:00;8.48;;;6.43;;
53207;SDS011;39093;52.788;6.940;2023-01-28T05:23:26;7.28;;;6.28;;
53207;SDS011;39093;52.788;6.940;2023-01-28T05:25:53;8.43;;;6.28;;
53207;SDS011;39093;52.788;6.940;2023-01-28T05:28:20;9.23;;;7.18;;
53207;SDS011;39093;52.788;6.940;2023-01-28T05:30:47;7.90;;;6.55;;
53207;SDS011;39093;52.788;6.940;2023-01-28T05:33:14;7.07;;;5.85;;
53207;SDS011;39093;52.788;6.940;2023-01-28T05:35:41;7.97;;;6.68;;
53207;SDS011;39093;52.788;6.940;2023-01-28T05:38:08;7.93;;;6.43;;
53207;SDS011;39093;52.788;6.940;2023-01-28T05:40:35;7.93;;;7.13;;
53207;SDS011;39093;52.788;6.940;2023-01-28T05:43:02;7.43;;;5.93;;
53207;SDS011;39093;52.788;6.940;2023-01-28T05:45:31;12.57;;;6.78;;
53207;SDS011;39093;52.788;6.940;2023-01-28T05:47:58;8.80;;;5.78;;
53207;SDS011;39093;52.788;6.940;2023-01-28T05:50:25;7.53;;;6.32;;
53207;SDS011;39093;52.788;6.940;2023-01-28T05:52:52;6.53;;;5.80;;
53207;SDS011;39093;52.788;6.940;2023-01-28T05:55:19;7.00;;;6.30;;
53207;SDS011;39093;52.788;6.940;2023-01-28T05:57:46;7.18;;;6.22;;
53207;SDS011;39093;52.788;6.940;2023-01-28T06:00:14;10.00;;;7.10;;
53207;SDS011;39093;52.788;6.940;2023-01-28T06:02:42;7.15;;;6.45;;
53207;SDS011;39093;52.788;6.940;2023-01-28T06:05:09;6.43;;;5.70;;
53207;SDS011;39093;52.788;6.940;2023-01-28T06:07:36;8.80;;;6.60;;
53207;SDS011;39093;52.788;6.940;2023-01-28T06:10:03;8.65;;;6.63;;
53207;SDS011;39093;52.788;6.940;2023-01-28T06:12:30;7.72;;;6.65;;
53207;SDS011;39093;52.788;6.940;2023-01-28T06:14:57;8.00;;;6.40;;
53207;SDS011;39093;52.788;6.940;2023-01-28T06:17:24;7.18;;;6.43;;
53207;SDS011;39093;52.788;6.940;2023-01-28T06:19:51;7.70;;;6.82;;
53207;SDS011;39093;52.788;6.940;2023-01-28T06:22:18;7.88;;;6.28;;
53207;SDS011;39093;52.788;6.940;2023-01-28T06:24:45;7.03;;;5.82;;
53207;SDS011;39093;52.788;6.940;2023-01-28T06:27:12;7.63;;;6.30;;
53207;SDS011;39093;52.788;6.940;2023-01-28T06:29:38;7.68;;;6.25;;
53207;SDS011;39093;52.788;6.940;2023-01-28T06:32:05;9.73;;;6.10;;
53207;SDS011;39093;52.788;6.940;2023-01-28T06:34:32;11.20;;;7.38;;
53207;SDS011;39093;52.788;6.940;2023-01-28T06:36:59;11.18;;;7.30;;
53207;SDS011;39093;52.788;6.940;2023-01-28T06:39:26;9.60;;;8.30;;
53207;SDS011;39093;52.788;6.940;2023-01-28T06:41:57;11.70;;;7.00;;
53207;SDS011;39093;52.788;6.940;2023-01-28T06:44:23;9.10;;;7.13;;
53207;SDS011;39093;52.788;6.940;2023-01-28T06:46:50;9.27;;;6.93;;
53207;SDS011;39093;52.788;6.940;2023-01-28T06:49:17;8.02;;;6.78;;
53207;SDS011;39093;52.788;6.940;2023-01-28T06:51:45;6.72;;;6.03;;
53207;SDS011;39093;52.788;6.940;2023-01-28T06:54:12;6.30;;;5.70;;
53207;SDS011;39093;52.788;6.940;2023-01-28T06:56:39;7.60;;;6.78;;
53207;SDS011;39093;52.788;6.940;2023-01-28T06:59:06;9.32;;;6.32;;
53207;SDS011;39093;52.788;6.940;2023-01-28T07:01:33;8.80;;;6.53;;
53207;SDS011;39093;52.788;6.940;2023-01-28T07:04:00;7.90;;;6.25;;
53207;SDS011;39093;52.788;6.940;2023-01-28T07:06:26;8.30;;;6.45;;
53207;SDS011;39093;52.788;6.940;2023-01-28T07:08:53;7.40;;;6.35;;
53207;SDS011;39093;52.788;6.940;2023-01-28T07:11:20;7.25;;;5.60;;
53207;SDS011;39093;52.788;6.940;2023-01-28T07:13:47;7.32;;;5.47;;
53207;SDS011;39093;52.788;6.940;2023-01-28T07:16:14;6.28;;;5.10;;
53207;SDS011;39093;52.788;6.940;2023-01-28T07:18:41;7.70;;;5.95;;
53207;SDS011;39093;52.788;6.940;2023-01-28T07:21:08;6.95;;;5.85;;
53207;SDS011;39093;52.788;6.940;2023-01-28T07:23:35;7.35;;;6.53;;
53207;SDS011;39093;52.788;6.940;2023-01-28T07:26:02;7.95;;;6.18;;
53207;SDS011;39093;52.788;6.940;2023-01-28T07:28:30;7.90;;;6.47;;
53207;SDS011;39093;52.788;6.940;2023-01-28T07:30:59;10.20;;;6.78;;
53207;SDS011;39093;52.788;6.940;2023-01-28T07:33:26;8.02;;;6.10;;
53207;SDS011;39093;52.788;6.940;2023-01-28T07:35:53;7.88;;;6.70;;
53207;SDS011;39093;52.788;6.940;2023-01-28T07:38:20;9.55;;;7.57;;
53207;SDS011;39093;52.788;6.940;2023-01-28T07:40:47;10.20;;;8.05;;
53207;SDS011;39093;52.788;6.940;2023-01-28T07:43:14;10.10;;;7.63;;
53207;SDS011;39093;52.788;6.940;2023-01-28T07:45:41;12.25;;;7.78;;
53207;SDS011;39093;52.788;6.940;2023-01-28T07:48:10;9.98;;;8.27;;
53207;SDS011;39093;52.788;6.940;2023-01-28T07:50:39;11.77;;;7.90;;
53207;SDS011;39093;52.788;6.940;2023-01-28T07:53:07;11.55;;;7.85;;
53207;SDS011;39093;52.788;6.940;2023-01-28T07:55:36;9.38;;;7.20;;
53207;SDS011;39093;52.788;6.940;2023-01-28T07:58:04;9.95;;;7.85;;
53207;SDS011;39093;52.788;6.940;2023-01-28T08:00:34;8.65;;;7.63;;
53207;SDS011;39093;52.788;6.940;2023-01-28T08:03:03;9.38;;;8.10;;
53207;SDS011;39093;52.788;6.940;2023-01-28T08:05:39;12.23;;;8.82;;
53207;SDS011;39093;52.788;6.940;2023-01-28T08:08:09;11.20;;;9.18;;
53207;SDS011;39093;52.788;6.940;2023-01-28T08:10:36;12.05;;;9.48;;
53207;SDS011;39093;52.788;6.940;2023-01-28T08:13:04;13.57;;;10.23;;
53207;SDS011;39093;52.788;6.940;2023-01-28T08:15:32;13.05;;;10.68;;
53207;SDS011;39093;52.788;6.940;2023-01-28T08:18:00;12.52;;;10.27;;
53207;SDS011;39093;52.788;6.940;2023-01-28T08:20:29;14.18;;;10.55;;
53207;SDS011;39093;52.788;6.940;2023-01-28T08:25:37;11.90;;;10.07;;
53207;SDS011;39093;52.788;6.940;2023-01-28T08:28:05;12.25;;;10.60;;
53207;SDS011;39093;52.788;6.940;2023-01-28T08:30:32;11.75;;;9.65;;
53207;SDS011;39093;52.788;6.940;2023-01-28T08:33:00;12.95;;;10.35;;
53207;SDS011;39093;52.788;6.940;2023-01-28T08:35:27;13.82;;;9.90;;
53207;SDS011;39093;52.788;6.940;2023-01-28T08:37:57;11.82;;;10.35;;
53207;SDS011;39093;52.788;6.940;2023-01-28T08:40:25;12.98;;;10.23;;
53207;SDS011;39093;52.788;6.940;2023-01-28T08:42:52;12.25;;;9.90;;
53207;SDS011;39093;52.788;6.940;2023-01-28T08:45:20;12.90;;;11.05;;
53207;SDS011;39093;52.788;6.940;2023-01-28T08:47:54;16.63;;;11.32;;
53207;SDS011;39093;52.788;6.940;2023-01-28T08:50:23;15.13;;;10.80;;
53207;SDS011;39093;52.788;6.940;2023-01-28T08:52:56;13.88;;;10.30;;
53207;SDS011;39093;52.788;6.940;2023-01-28T08:55:26;11.35;;;9.55;;
53207;SDS011;39093;52.788;6.940;2023-01-28T08:57:56;14.55;;;10.20;;
53207;SDS011;39093;52.788;6.940;2023-01-28T09:00:24;13.25;;;10.90;;
53207;SDS011;39093;52.788;6.940;2023-01-28T09:02:51;12.80;;;10.20;;
53207;SDS011;39093;52.788;6.940;2023-01-28T09:05:19;9.82;;;8.70;;
53207;SDS011;39093;52.788;6.940;2023-01-28T09:07:46;12.18;;;9.35;;
53207;SDS011;39093;52.788;6.940;2023-01-28T09:10:14;13.60;;;9.73;;
53207;SDS011;39093;52.788;6.940;2023-01-28T09:12:42;10.52;;;9.40;;
53207;SDS011;39093;52.788;6.940;2023-01-28T09:15:09;10.82;;;9.43;;
53207;SDS011;39093;52.788;6.940;2023-01-28T09:17:37;10.15;;;9.07;;
53207;SDS011;39093;52.788;6.940;2023-01-28T09:20:05;17.17;;;10.00;;
53207;SDS011;39093;52.788;6.940;2023-01-28T09:22:33;14.27;;;10.10;;
53207;SDS011;39093;52.788;6.940;2023-01-28T09:25:00;11.00;;;9.63;;
53207;SDS011;39093;52.788;6.940;2023-01-28T09:27:27;12.57;;;10.57;;
53207;SDS011;39093;52.788;6.940;2023-01-28T09:29:54;10.85;;;9.52;;
53207;SDS011;39093;52.788;6.940;2023-01-28T09:32:21;14.10;;;9.88;;
53207;SDS011;39093;52.788;6.940;2023-01-28T09:34:49;11.40;;;10.20;;
53207;SDS011;39093;52.788;6.940;2023-01-28T09:37:16;12.05;;;9.00;;
53207;SDS011;39093;52.788;6.940;2023-01-28T09:39:43;11.35;;;8.98;;
53207;SDS011;39093;52.788;6.940;2023-01-28T09:45:20;10.20;;;8.68;;
53207;SDS011;39093;52.788;6.940;2023-01-28T09:47:38;11.13;;;9.50;;
53207;SDS011;39093;52.788;6.940;2023-01-28T09:50:15;12.40;;;9.15;;
53207;SDS011;39093;52.788;6.940;2023-01-28T09:52:48;9.23;;;8.27;;
53207;SDS011;39093;52.788;6.940;2023-01-28T09:55:30;16.90;;;9.13;;
53207;SDS011;39093;52.788;6.940;2023-01-28T09:57:58;9.75;;;8.25;;
53207;SDS011;39093;52.788;6.940;2023-01-28T10:00:29;10.93;;;8.68;;
53207;SDS011;39093;52.788;6.940;2023-01-28T10:14:05;11.73;;;9.43;;
53207;SDS011;39093;52.788;6.940;2023-01-28T10:16:49;13.18;;;10.25;;
53207;SDS011;39093;52.788;6.940;2023-01-28T10:19:37;12.32;;;9.80;;
53207;SDS011;39093;52.788;6.940;2023-01-28T10:22:20;10.75;;;9.13;;
53207;SDS011;39093;52.788;6.940;2023-01-28T10:24:59;11.13;;;9.45;;
53207;SDS011;39093;52.788;6.940;2023-01-28T10:27:32;12.32;;;8.93;;
53207;SDS011;39093;52.788;6.940;2023-01-28T10:30:23;9.57;;;8.52;;
53207;SDS011;39093;52.788;6.940;2023-01-28T10:32:53;11.35;;;8.73;;
53207;SDS011;39093;52.788;6.940;2023-01-28T10:35:24;11.83;;;9.00;;
53207;SDS011;39093;52.788;6.940;2023-01-28T10:37:55;9.35;;;8.35;;
53207;SDS011;39093;52.788;6.940;2023-01-28T10:40:27;12.27;;;8.27;;
53207;SDS011;39093;52.788;6.940;2023-01-28T10:42:54;10.55;;;8.20;;
53207;SDS011;39093;52.788;6.940;2023-01-28T10:48:07;9.82;;;7.38;;
53207;SDS011;39093;52.788;6.940;2023-01-28T10:50:59;11.25;;;8.55;;
53207;SDS011;39093;52.788;6.940;2023-01-28T10:53:39;9.85;;;8.10;;
53207;SDS011;39093;52.788;6.940;2023-01-28T10:56:08;9.98;;;7.90;;
53207;SDS011;39093;52.788;6.940;2023-01-28T10:59:02;9.50;;;7.88;;
53207;SDS011;39093;52.788;6.940;2023-01-28T11:02:04;14.32;;;10.50;;
53207;SDS011;39093;52.788;6.940;2023-01-28T11:04:30;12.38;;;9.32;;
53207;SDS011;39093;52.788;6.940;2023-01-28T11:07:00;11.10;;;8.73;;
53207;SDS011;39093;52.788;6.940;2023-01-28T11:09:35;15.10;;;10.75;;
53207;SDS011;39093;52.788;6.940;2023-01-28T11:12:16;11.95;;;10.18;;
53207;SDS011;39093;52.788;6.940;2023-01-28T11:14:49;12.70;;;10.05;;
53207;SDS011;39093;52.788;6.940;2023-01-28T11:17:18;9.97;;;8.80;;
53207;SDS011;39093;52.788;6.940;2023-01-28T11:19:48;12.90;;;9.70;;
53207;SDS011;39093;52.788;6.940;2023-01-28T11:22:34;12.35;;;10.00;;
53207;SDS011;39093;52.788;6.940;2023-01-28T11:25:05;12.80;;;10.27;;
53207;SDS011;39093;52.788;6.940;2023-01-28T11:27:45;10.65;;;9.52;;
53207;SDS011;39093;52.788;6.940;2023-01-28T11:32:57;13.90;;;9.30;;
53207;SDS011;39093;52.788;6.940;2023-01-28T11:35:40;12.30;;;10.18;;
53207;SDS011;39093;52.788;6.940;2023-01-28T11:38:45;12.05;;;9.65;;
53207;SDS011;39093;52.788;6.940;2023-01-28T11:41:00;11.35;;;9.43;;
53207;SDS011;39093;52.788;6.940;2023-01-28T11:43:28;11.25;;;8.80;;
53207;SDS011;39093;52.788;6.940;2023-01-28T11:48:55;11.18;;;9.05;;
53207;SDS011;39093;52.788;6.940;2023-01-28T11:52:00;13.17;;;9.77;;
53207;SDS011;39093;52.788;6.940;2023-01-28T11:57:25;10.80;;;9.02;;
53207;SDS011;39093;52.788;6.940;2023-01-28T12:00:25;12.15;;;8.93;;
53207;SDS011;39093;52.788;6.940;2023-01-28T12:11:25;11.00;;;9.50;;
53207;SDS011;39093;52.788;6.940;2023-01-28T12:17:13;10.40;;;8.55;;
53207;SDS011;39093;52.788;6.940;2023-01-28T12:20:07;9.55;;;8.18;;
53207;SDS011;39093;52.788;6.940;2023-01-28T12:36:58;10.05;;;6.93;;
53207;SDS011;39093;52.788;6.940;2023-01-28T12:45:43;10.07;;;7.75;;
53207;SDS011;39093;52.788;6.940;2023-01-28T12:51:02;10.15;;;7.63;;
53207;SDS011;39093;52.788;6.940;2023-01-28T12:54:11;11.43;;;8.25;;
53207;SDS011;39093;52.788;6.940;2023-01-28T12:56:36;8.95;;;7.38;;
53207;SDS011;39093;52.788;6.940;2023-01-28T12:59:10;7.90;;;6.65;;
53207;SDS011;39093;52.788;6.940;2023-01-28T13:01:47;9.55;;;7.72;;
53207;SDS011;39093;52.788;6.940;2023-01-28T13:07:32;10.52;;;7.03;;
53207;SDS011;39093;52.788;6.940;2023-01-28T13:10:13;9.35;;;7.63;;
53207;SDS011;39093;52.788;6.940;2023-01-28T13:13:02;9.27;;;6.72;;
53207;SDS011;39093;52.788;6.940;2023-01-28T13:15:30;9.77;;;8.07;;
53207;SDS011;39093;52.788;6.940;2023-01-28T13:18:01;9.02;;;7.20;;
53207;SDS011;39093;52.788;6.940;2023-01-28T13:20:46;10.43;;;7.00;;
53207;SDS011;39093;52.788;6.940;2023-01-28T13:26:09;11.73;;;7.40;;
53207;SDS011;39093;52.788;6.940;2023-01-28T13:28:43;10.10;;;7.78;;
53207;SDS011;39093;52.788;6.940;2023-01-28T13:31:15;11.18;;;6.80;;
53207;SDS011;39093;52.788;6.940;2023-01-28T13:33:59;8.98;;;7.15;;
53207;SDS011;39093;52.788;6.940;2023-01-28T13:36:28;9.20;;;6.93;;
53207;SDS011;39093;52.788;6.940;2023-01-28T13:39:03;13.00;;;7.55;;
53207;SDS011;39093;52.788;6.940;2023-01-28T13:41:44;10.00;;;6.82;;
53207;SDS011;39093;52.788;6.940;2023-01-28T13:44:20;7.30;;;6.20;;
53207;SDS011;39093;52.788;6.940;2023-01-28T13:46:47;8.65;;;7.20;;
53207;SDS011;39093;52.788;6.940;2023-01-28T13:49:15;9.73;;;7.18;;
53207;SDS011;39093;52.788;6.940;2023-01-28T13:51:55;7.78;;;5.90;;
53207;SDS011;39093;52.788;6.940;2023-01-28T13:54:34;8.73;;;6.63;;
53207;SDS011;39093;52.788;6.940;2023-01-28T13:57:41;11.18;;;6.50;;
53207;SDS011;39093;52.788;6.940;2023-01-28T14:17:26;10.40;;;7.53;;
53207;SDS011;39093;52.788;6.940;2023-01-28T14:20:03;8.88;;;7.20;;
53207;SDS011;39093;52.788;6.940;2023-01-28T14:22:34;8.82;;;7.20;;
53207;SDS011;39093;52.788;6.940;2023-01-28T14:25:03;10.35;;;7.60;;
53207;SDS011;39093;52.788;6.940;2023-01-28T14:27:39;10.07;;;8.10;;
53207;SDS011;39093;52.788;6.940;2023-01-28T14:30:15;12.57;;;7.95;;
53207;SDS011;39093;52.788;6.940;2023-01-28T14:32:45;9.57;;;7.55;;
53207;SDS011;39093;52.788;6.940;2023-01-28T14:35:18;11.23;;;7.35;;
53207;SDS011;39093;52.788;6.940;2023-01-28T14:37:58;11.30;;;7.88;;
53207;SDS011;39093;52.788;6.940;2023-01-28T14:40:31;13.85;;;8.02;;
53207;SDS011;39093;52.788;6.940;2023-01-28T14:43:01;9.13;;;7.38;;
53207;SDS011;39093;52.788;6.940;2023-01-28T14:51:32;8.90;;;7.28;;
53207;SDS011;39093;52.788;6.940;2023-01-28T14:54:36;10.68;;;7.55;;
53207;SDS011;39093;52.788;6.940;2023-01-28T14:59:59;12.77;;;8.20;;
53207;SDS011;39093;52.788;6.940;2023-01-28T15:02:29;11.43;;;8.30;;
53207;SDS011;39093;52.788;6.940;2023-01-28T15:05:07;11.93;;;8.57;;
53207;SDS011;39093;52.788;6.940;2023-01-28T15:07:35;11.15;;;8.13;;
53207;SDS011;39093;52.788;6.940;2023-01-28T15:10:06;11.77;;;8.50;;
53207;SDS011;39093;52.788;6.940;2023-01-28T15:12:42;11.80;;;9.00;;
53207;SDS011;39093;52.788;6.940;2023-01-28T15:15:35;12.15;;;9.60;;
53207;SDS011;39093;52.788;6.940;2023-01-28T15:18:14;13.82;;;9.10;;
53207;SDS011;39093;52.788;6.940;2023-01-28T15:20:45;13.07;;;9.57;;
53207;SDS011;39093;52.788;6.940;2023-01-28T15:23:16;15.18;;;9.65;;
53207;SDS011;39093;52.788;6.940;2023-01-28T15:25:46;12.60;;;9.00;;
53207;SDS011;39093;52.788;6.940;2023-01-28T15:28:19;12.48;;;8.82;;
53207;SDS011;39093;52.788;6.940;2023-01-28T15:30:55;19.55;;;9.77;;
53207;SDS011;39093;52.788;6.940;2023-01-28T15:33:22;16.48;;;10.93;;
53207;SDS011;39093;52.788;6.940;2023-01-28T15:35:50;20.55;;;10.55;;
53207;SDS011;39093;52.788;6.940;2023-01-28T15:38:19;16.35;;;10.15;;
53207;SDS011;39093;52.788;6.940;2023-01-28T15:40:54;13.70;;;10.07;;
53207;SDS011;39093;52.788;6.940;2023-01-28T15:43:30;15.38;;;9.75;;
53207;SDS011;39093;52.788;6.940;2023-01-28T15:46:01;15.25;;;9.82;;
53207;SDS011;39093;52.788;6.940;2023-01-28T15:48:29;18.33;;;10.52;;
53207;SDS011;39093;52.788;6.940;2023-01-28T15:51:03;17.27;;;10.85;;
53207;SDS011;39093;52.788;6.940;2023-01-28T15:53:42;19.02;;;10.48;;
53207;SDS011;39093;52.788;6.940;2023-01-28T15:56:13;18.42;;;10.95;;
53207;SDS011;39093;52.788;6.940;2023-01-28T15:58:40;17.98;;;10.57;;
53207;SDS011;39093;52.788;6.940;2023-01-28T16:03:35;17.80;;;10.32;;
53207;SDS011;39093;52.788;6.940;2023-01-28T16:06:19;15.55;;;10.38;;
53207;SDS011;39093;52.788;6.940;2023-01-28T16:08:51;20.35;;;11.00;;
53207;SDS011;39093;52.788;6.940;2023-01-28T16:11:22;17.08;;;9.25;;
53207;SDS011;39093;52.788;6.940;2023-01-28T16:13:52;13.40;;;9.38;;
53207;SDS011;39093;52.788;6.940;2023-01-28T16:16:27;18.30;;;11.05;;
53207;SDS011;39093;52.788;6.940;2023-01-28T16:19:03;16.55;;;10.25;;
53207;SDS011;39093;52.788;6.940;2023-01-28T16:21:42;17.52;;;10.60;;
53207;SDS011;39093;52.788;6.940;2023-01-28T16:29:50;18.23;;;10.48;;
53207;SDS011;39093;52.788;6.940;2023-01-28T16:32:28;15.15;;;9.55;;
53207;SDS011;39093;52.788;6.940;2023-01-28T16:34:58;14.93;;;9.23;;
53207;SDS011;39093;52.788;6.940;2023-01-28T16:37:25;15.10;;;8.95;;
53207;SDS011;39093;52.788;6.940;2023-01-28T16:39:57;15.40;;;9.70;;
53207;SDS011;39093;52.788;6.940;2023-01-28T16:42:27;13.43;;;9.45;;
53207;SDS011;39093;52.788;6.940;2023-01-28T16:44:56;15.73;;;9.30;;
53207;SDS011;39093;52.788;6.940;2023-01-28T16:47:23;14.98;;;9.73;;
53207;SDS011;39093;52.788;6.940;2023-01-28T16:49:50;13.63;;;9.45;;
53207;SDS011;39093;52.788;6.940;2023-01-28T16:52:16;11.75;;;8.82;;
53207;SDS011;39093;52.788;6.940;2023-01-28T16:54:43;14.52;;;9.60;;
53207;SDS011;39093;52.788;6.940;2023-01-28T16:57:14;19.08;;;9.82;;
53207;SDS011;39093;52.788;6.940;2023-01-28T16:59:43;13.43;;;9.55;;
53207;SDS011;39093;52.788;6.940;2023-01-28T17:02:11;16.13;;;9.68;;
53207;SDS011;39093;52.788;6.940;2023-01-28T17:04:39;15.13;;;10.88;;
53207;SDS011;39093;52.788;6.940;2023-01-28T17:07:06;16.90;;;10.48;;
53207;SDS011;39093;52.788;6.940;2023-01-28T17:09:33;17.98;;;11.40;;
53207;SDS011;39093;52.788;6.940;2023-01-28T17:12:01;17.52;;;10.80;;
53207;SDS011;39093;52.788;6.940;2023-01-28T17:14:28;17.88;;;10.48;;